MET'MAP v2.0
soon released !

Expected late october,
this new version will be
more efficient, smarter,
and hosted on a brand new
server x3 powerfull...
...and still free !


Not compatible ?
Try the mobile version !

LOG IN : | Subscribe | Disclaimer | Who is Orbifly ? |
ICAO code :

TAF - BKPR Pristina - 19 Feb 2020 19:59 UTC - Data Source NOAA   


- Airport Elevation : 1789 ft
- IATA code : PRN
- No reported NOTAMs.


BKPR - Pristina

Latest METAR recorded : 2015/08/11 08:00 BKPR 110800Z VRB02KT CAVOK 24/10 Q1015 NOSIG
TAF TAF BKPR
Valid from the 19 at 18:00 until the 20 at 18:00 UTC


191730Z 1918/2018 36010KT 9999 FEW040 BKN080
TEMPO 2002/2008 3000 RASN BKN008
PROB40
TEMPO 2002/2008 1200 SN
TEMPO 2002/2018 36020KT

Source NOAA


MET'MAP, your aeronautical weather chart ! - Copyright ORBIFLY December 2007

Programming & Development : Alexandra Zaïnal
Co-Developer : Marc-Olivier Méhu
Technical & hardware support : Manuel Goepfert
Concept & Financing : Baudouin d'Aumeries